sensor_id;sensor_type;location;lat;lon;timestamp;pressure;altitude;pressure_sealevel;temperature
79053;BMP280;68451;49.510;6.026;2024-01-30T00:00:17;99232.47;;;4.67
79053;BMP280;68451;49.510;6.026;2024-01-30T00:02:44;99112.34;;;3.84
79053;BMP280;68451;49.510;6.026;2024-01-30T00:05:12;99236.78;;;4.59
79053;BMP280;68451;49.510;6.026;2024-01-30T00:07:39;99232.88;;;4.55
79053;BMP280;68451;49.510;6.026;2024-01-30T00:10:06;99133.72;;;3.94
79053;BMP280;68451;49.510;6.026;2024-01-30T00:12:34;99193.09;;;4.30
79053;BMP280;68451;49.510;6.026;2024-01-30T00:15:01;99249.91;;;4.65
79053;BMP280;68451;49.510;6.026;2024-01-30T00:17:28;99222.44;;;4.46
79053;BMP280;68451;49.510;6.026;2024-01-30T00:19:55;99220.31;;;4.42
79053;BMP280;68451;49.510;6.026;2024-01-30T00:22:22;99224.03;;;4.39
79053;BMP280;68451;49.510;6.026;2024-01-30T00:24:49;99249.72;;;4.59
79053;BMP280;68451;49.510;6.026;2024-01-30T00:27:16;99255.03;;;4.57
79053;BMP280;68451;49.510;6.026;2024-01-30T00:29:43;99230.84;;;4.40
79053;BMP280;68451;49.510;6.026;2024-01-30T00:32:10;99229.25;;;4.47
79053;BMP280;68451;49.510;6.026;2024-01-30T00:34:37;99165.31;;;4.06
79053;BMP280;68451;49.510;6.026;2024-01-30T00:37:04;99254.44;;;4.63
79053;BMP280;68451;49.510;6.026;2024-01-30T00:39:31;99197.63;;;4.28
79053;BMP280;68451;49.510;6.026;2024-01-30T00:41:58;99221.50;;;4.47
79053;BMP280;68451;49.510;6.026;2024-01-30T00:44:24;99254.94;;;4.67
79053;BMP280;68451;49.510;6.026;2024-01-30T00:46:51;99247.13;;;4.59
79053;BMP280;68451;49.510;6.026;2024-01-30T00:49:18;99216.41;;;4.38
79053;BMP280;68451;49.510;6.026;2024-01-30T00:51:46;99253.16;;;4.67
79053;BMP280;68451;49.510;6.026;2024-01-30T00:54:13;99258.81;;;4.71
79053;BMP280;68451;49.510;6.026;2024-01-30T00:56:40;99250.72;;;4.66
79053;BMP280;68451;49.510;6.026;2024-01-30T00:59:07;99223.50;;;4.54
79053;BMP280;68451;49.510;6.026;2024-01-30T01:01:33;99232.78;;;4.64
79053;BMP280;68451;49.510;6.026;2024-01-30T01:04:00;99258.22;;;4.77
79053;BMP280;68451;49.510;6.026;2024-01-30T01:06:28;99199.75;;;4.32
79053;BMP280;68451;49.510;6.026;2024-01-30T01:08:55;99209.94;;;4.34
79053;BMP280;68451;49.510;6.026;2024-01-30T01:11:21;99216.38;;;4.30
79053;BMP280;68451;49.510;6.026;2024-01-30T01:13:48;99209.59;;;4.11
79053;BMP280;68451;49.510;6.026;2024-01-30T01:16:15;99258.53;;;4.48
79053;BMP280;68451;49.510;6.026;2024-01-30T01:18:42;99259.47;;;4.47
79053;BMP280;68451;49.510;6.026;2024-01-30T01:21:09;99256.38;;;4.43
79053;BMP280;68451;49.510;6.026;2024-01-30T01:23:36;99253.50;;;4.46
79053;BMP280;68451;49.510;6.026;2024-01-30T01:26:03;99219.25;;;4.27
79053;BMP280;68451;49.510;6.026;2024-01-30T01:28:30;99253.75;;;4.35
79053;BMP280;68451;49.510;6.026;2024-01-30T01:30:57;99196.34;;;4.06
79053;BMP280;68451;49.510;6.026;2024-01-30T01:33:32;99092.28;;;3.35
79053;BMP280;68451;49.510;6.026;2024-01-30T01:36:00;98887.88;;;1.99
79053;BMP280;68451;49.510;6.026;2024-01-30T01:38:29;99238.72;;;4.13
79053;BMP280;68451;49.510;6.026;2024-01-30T01:40:56;99234.34;;;4.14
79053;BMP280;68451;49.510;6.026;2024-01-30T01:43:23;99051.50;;;3.03
79053;BMP280;68451;49.510;6.026;2024-01-30T01:45:50;99250.44;;;4.25
79053;BMP280;68451;49.510;6.026;2024-01-30T01:48:17;99177.09;;;3.83
79053;BMP280;68451;49.510;6.026;2024-01-30T01:50:44;99250.59;;;4.24
79053;BMP280;68451;49.510;6.026;2024-01-30T01:53:12;99203.00;;;3.91
79053;BMP280;68451;49.510;6.026;2024-01-30T01:55:39;99201.88;;;3.93
79053;BMP280;68451;49.510;6.026;2024-01-30T01:58:07;99228.97;;;4.07
79053;BMP280;68451;49.510;6.026;2024-01-30T02:00:36;99211.13;;;3.96
79053;BMP280;68451;49.510;6.026;2024-01-30T02:03:06;99230.91;;;4.05
79053;BMP280;68451;49.510;6.026;2024-01-30T02:05:34;99200.03;;;3.86
79053;BMP280;68451;49.510;6.026;2024-01-30T02:08:02;99230.22;;;4.03
79053;BMP280;68451;49.510;6.026;2024-01-30T02:10:30;99195.13;;;3.75
79053;BMP280;68451;49.510;6.026;2024-01-30T02:12:57;99210.31;;;3.78
79053;BMP280;68451;49.510;6.026;2024-01-30T02:15:24;99063.06;;;2.81
79053;BMP280;68451;49.510;6.026;2024-01-30T02:17:51;99201.31;;;3.64
79053;BMP280;68451;49.510;6.026;2024-01-30T02:20:18;99241.38;;;3.86
79053;BMP280;68451;49.510;6.026;2024-01-30T02:22:46;99214.66;;;3.59
79053;BMP280;68451;49.510;6.026;2024-01-30T02:25:13;99174.72;;;3.36
79053;BMP280;68451;49.510;6.026;2024-01-30T02:27:40;99200.63;;;3.44
79053;BMP280;68451;49.510;6.026;2024-01-30T02:30:07;99225.81;;;3.60
79053;BMP280;68451;49.510;6.026;2024-01-30T02:32:34;99213.38;;;3.46
79053;BMP280;68451;49.510;6.026;2024-01-30T02:35:01;99202.31;;;3.36
79053;BMP280;68451;49.510;6.026;2024-01-30T02:37:28;99233.63;;;3.50
79053;BMP280;68451;49.510;6.026;2024-01-30T02:39:55;99110.19;;;2.74
79053;BMP280;68451;49.510;6.026;2024-01-30T02:42:22;99100.47;;;2.67
79053;BMP280;68451;49.510;6.026;2024-01-30T02:44:49;99194.78;;;3.25
79053;BMP280;68451;49.510;6.026;2024-01-30T02:47:15;99213.75;;;3.33
79053;BMP280;68451;49.510;6.026;2024-01-30T02:49:42;99212.81;;;3.34
79053;BMP280;68451;49.510;6.026;2024-01-30T02:52:09;99221.94;;;3.46
79053;BMP280;68451;49.510;6.026;2024-01-30T02:54:36;99209.47;;;3.42
79053;BMP280;68451;49.510;6.026;2024-01-30T02:57:03;99176.34;;;3.20
79053;BMP280;68451;49.510;6.026;2024-01-30T02:59:30;99221.00;;;3.47
79053;BMP280;68451;49.510;6.026;2024-01-30T03:01:59;99237.22;;;3.57
79053;BMP280;68451;49.510;6.026;2024-01-30T03:04:27;99217.75;;;3.45
79053;BMP280;68451;49.510;6.026;2024-01-30T03:06:54;99205.56;;;3.38
79053;BMP280;68451;49.510;6.026;2024-01-30T03:09:21;99193.16;;;3.24
79053;BMP280;68451;49.510;6.026;2024-01-30T03:11:48;99201.41;;;3.27
79053;BMP280;68451;49.510;6.026;2024-01-30T03:14:14;99187.69;;;3.27
79053;BMP280;68451;49.510;6.026;2024-01-30T03:16:41;99230.34;;;3.48
79053;BMP280;68451;49.510;6.026;2024-01-30T03:19:08;99057.28;;;2.42
79053;BMP280;68451;49.510;6.026;2024-01-30T03:21:36;99235.94;;;3.44
79053;BMP280;68451;49.510;6.026;2024-01-30T03:24:03;99216.25;;;3.25
79053;BMP280;68451;49.510;6.026;2024-01-30T03:26:30;99013.97;;;2.01
79053;BMP280;68451;49.510;6.026;2024-01-30T03:28:56;99242.47;;;3.48
79053;BMP280;68451;49.510;6.026;2024-01-30T03:31:23;99214.31;;;3.27
79053;BMP280;68451;49.510;6.026;2024-01-30T03:33:51;99191.31;;;3.16
79053;BMP280;68451;49.510;6.026;2024-01-30T03:36:18;99133.78;;;2.79
79053;BMP280;68451;49.510;6.026;2024-01-30T03:38:45;99230.06;;;3.34
79053;BMP280;68451;49.510;6.026;2024-01-30T03:41:11;99214.63;;;3.24
79053;BMP280;68451;49.510;6.026;2024-01-30T03:43:38;99147.06;;;2.84
79053;BMP280;68451;49.510;6.026;2024-01-30T03:46:06;99243.34;;;3.39
79053;BMP280;68451;49.510;6.026;2024-01-30T03:48:33;99191.56;;;3.13
79053;BMP280;68451;49.510;6.026;2024-01-30T03:51:00;99225.31;;;3.29
79053;BMP280;68451;49.510;6.026;2024-01-30T03:53:27;99222.38;;;3.24
79053;BMP280;68451;49.510;6.026;2024-01-30T03:55:54;99241.94;;;3.44
79053;BMP280;68451;49.510;6.026;2024-01-30T03:58:20;99241.94;;;3.44
79053;BMP280;68451;49.510;6.026;2024-01-30T04:00:47;99199.25;;;3.23
79053;BMP280;68451;49.510;6.026;2024-01-30T04:03:15;99200.31;;;3.30
79053;BMP280;68451;49.510;6.026;2024-01-30T04:05:44;99230.09;;;3.51
79053;BMP280;68451;49.510;6.026;2024-01-30T04:08:11;99240.50;;;3.59
79053;BMP280;68451;49.510;6.026;2024-01-30T04:10:38;99198.63;;;3.38
79053;BMP280;68451;49.510;6.026;2024-01-30T04:13:05;99221.59;;;3.59
79053;BMP280;68451;49.510;6.026;2024-01-30T04:15:36;99244.47;;;3.72
79053;BMP280;68451;49.510;6.026;2024-01-30T04:18:03;99245.16;;;3.74
79053;BMP280;68451;49.510;6.026;2024-01-30T04:20:30;99079.25;;;2.74
79053;BMP280;68451;49.510;6.026;2024-01-30T04:22:57;99212.22;;;3.58
79053;BMP280;68451;49.510;6.026;2024-01-30T04:25:24;99172.53;;;3.41
79053;BMP280;68451;49.510;6.026;2024-01-30T04:27:51;99223.53;;;3.75
79053;BMP280;68451;49.510;6.026;2024-01-30T04:30:18;99199.91;;;3.70
79053;BMP280;68451;49.510;6.026;2024-01-30T04:32:45;99061.22;;;2.91
79053;BMP280;68451;49.510;6.026;2024-01-30T04:35:12;99208.09;;;3.83
79053;BMP280;68451;49.510;6.026;2024-01-30T04:37:39;99237.38;;;4.09
79053;BMP280;68451;49.510;6.026;2024-01-30T04:40:06;99221.16;;;3.99
79053;BMP280;68451;49.510;6.026;2024-01-30T04:42:33;99073.69;;;3.13
79053;BMP280;68451;49.510;6.026;2024-01-30T04:45:00;99078.56;;;3.17
79053;BMP280;68451;49.510;6.026;2024-01-30T04:47:27;99096.09;;;3.31
79053;BMP280;68451;49.510;6.026;2024-01-30T04:49:54;99102.88;;;3.32
79053;BMP280;68451;49.510;6.026;2024-01-30T04:52:21;99187.13;;;3.86
79053;BMP280;68451;49.510;6.026;2024-01-30T04:54:48;99203.06;;;3.99
79053;BMP280;68451;49.510;6.026;2024-01-30T04:57:14;99223.19;;;4.13
79053;BMP280;68451;49.510;6.026;2024-01-30T04:59:41;99254.06;;;4.32
79053;BMP280;68451;49.510;6.026;2024-01-30T05:04:43;99117.84;;;3.46
79053;BMP280;68451;49.510;6.026;2024-01-30T05:07:11;99212.50;;;4.08
79053;BMP280;68451;49.510;6.026;2024-01-30T05:09:38;99236.53;;;4.26
79053;BMP280;68451;49.510;6.026;2024-01-30T05:12:05;99165.81;;;3.84
79053;BMP280;68451;49.510;6.026;2024-01-30T05:14:32;99202.75;;;4.02
79053;BMP280;68451;49.510;6.026;2024-01-30T05:16:58;98944.94;;;2.49
79053;BMP280;68451;49.510;6.026;2024-01-30T05:19:25;99191.63;;;4.01
79053;BMP280;68451;49.510;6.026;2024-01-30T05:21:52;99240.00;;;4.35
79053;BMP280;68451;49.510;6.026;2024-01-30T05:24:19;99216.09;;;4.15
79053;BMP280;68451;49.510;6.026;2024-01-30T05:26:47;99059.16;;;3.12
79053;BMP280;68451;49.510;6.026;2024-01-30T05:29:14;99090.59;;;3.26
79053;BMP280;68451;49.510;6.026;2024-01-30T05:31:41;99180.63;;;3.82
79053;BMP280;68451;49.510;6.026;2024-01-30T05:34:08;99161.81;;;3.72
79053;BMP280;68451;49.510;6.026;2024-01-30T05:36:35;99066.97;;;3.03
79053;BMP280;68451;49.510;6.026;2024-01-30T05:39:02;99239.59;;;4.04
79053;BMP280;68451;49.510;6.026;2024-01-30T05:41:33;99195.75;;;3.77
79053;BMP280;68451;49.510;6.026;2024-01-30T05:43:59;99219.97;;;3.93
79053;BMP280;68451;49.510;6.026;2024-01-30T05:46:26;99100.53;;;3.21
79053;BMP280;68451;49.510;6.026;2024-01-30T05:48:53;99227.34;;;4.06
79053;BMP280;68451;49.510;6.026;2024-01-30T05:51:20;99234.94;;;4.07
79053;BMP280;68451;49.510;6.026;2024-01-30T05:53:47;99111.75;;;3.29
79053;BMP280;68451;49.510;6.026;2024-01-30T05:56:14;99167.72;;;3.64
79053;BMP280;68451;49.510;6.026;2024-01-30T05:58:42;99195.81;;;3.85
79053;BMP280;68451;49.510;6.026;2024-01-30T06:01:09;99268.59;;;4.16
79053;BMP280;68451;49.510;6.026;2024-01-30T06:03:36;98967.69;;;2.36
79053;BMP280;68451;49.510;6.026;2024-01-30T06:06:03;98955.34;;;2.30
79053;BMP280;68451;49.510;6.026;2024-01-30T06:08:31;99220.28;;;3.90
79053;BMP280;68451;49.510;6.026;2024-01-30T06:10:57;99263.75;;;4.13
79053;BMP280;68451;49.510;6.026;2024-01-30T06:13:24;99266.47;;;4.11
79053;BMP280;68451;49.510;6.026;2024-01-30T06:15:51;99106.13;;;3.16
79053;BMP280;68451;49.510;6.026;2024-01-30T06:18:18;99235.69;;;4.00
79053;BMP280;68451;49.510;6.026;2024-01-30T06:20:45;99241.88;;;4.07
79053;BMP280;68451;49.510;6.026;2024-01-30T06:23:12;99128.75;;;3.40
79053;BMP280;68451;49.510;6.026;2024-01-30T06:25:39;99200.63;;;3.80
79053;BMP280;68451;49.510;6.026;2024-01-30T06:28:06;98878.88;;;1.86
79053;BMP280;68451;49.510;6.026;2024-01-30T06:30:33;98944.53;;;2.27
79053;BMP280;68451;49.510;6.026;2024-01-30T06:32:59;99216.25;;;4.14
79053;BMP280;68451;49.510;6.026;2024-01-30T06:35:26;99085.69;;;3.40
79053;BMP280;68451;49.510;6.026;2024-01-30T06:37:55;99245.72;;;4.46
79053;BMP280;68451;49.510;6.026;2024-01-30T06:40:22;99223.72;;;4.42
79053;BMP280;68451;49.510;6.026;2024-01-30T06:42:49;99198.78;;;4.33
79053;BMP280;68451;49.510;6.026;2024-01-30T06:45:16;99222.00;;;4.51
79053;BMP280;68451;49.510;6.026;2024-01-30T06:47:43;99227.69;;;4.55
79053;BMP280;68451;49.510;6.026;2024-01-30T06:50:10;99234.22;;;4.67
79053;BMP280;68451;49.510;6.026;2024-01-30T06:52:37;99211.16;;;4.47
79053;BMP280;68451;49.510;6.026;2024-01-30T06:55:04;99237.72;;;4.58
79053;BMP280;68451;49.510;6.026;2024-01-30T06:57:31;99229.97;;;4.58
79053;BMP280;68451;49.510;6.026;2024-01-30T06:59:58;99083.38;;;3.73
79053;BMP280;68451;49.510;6.026;2024-01-30T07:02:25;99201.44;;;4.41
79053;BMP280;68451;49.510;6.026;2024-01-30T07:04:52;99230.66;;;4.60
79053;BMP280;68451;49.510;6.026;2024-01-30T07:07:18;99263.22;;;4.78
79053;BMP280;68451;49.510;6.026;2024-01-30T07:09:46;99241.31;;;4.65
79053;BMP280;68451;49.510;6.026;2024-01-30T07:12:14;99238.03;;;4.55
79053;BMP280;68451;49.510;6.026;2024-01-30T07:14:41;99264.03;;;4.79
79053;BMP280;68451;49.510;6.026;2024-01-30T07:17:07;99218.25;;;4.45
79053;BMP280;68451;49.510;6.026;2024-01-30T07:19:34;99194.28;;;4.35
79053;BMP280;68451;49.510;6.026;2024-01-30T07:22:01;99272.31;;;4.82
79053;BMP280;68451;49.510;6.026;2024-01-30T07:24:28;99246.34;;;4.66
79053;BMP280;68451;49.510;6.026;2024-01-30T07:26:55;99242.81;;;4.67
79053;BMP280;68451;49.510;6.026;2024-01-30T07:29:22;99245.22;;;4.69
79053;BMP280;68451;49.510;6.026;2024-01-30T07:31:49;99236.50;;;4.70
79053;BMP280;68451;49.510;6.026;2024-01-30T07:34:15;99212.88;;;4.65
79053;BMP280;68451;49.510;6.026;2024-01-30T07:36:42;99098.13;;;4.06
79053;BMP280;68451;49.510;6.026;2024-01-30T07:39:09;99241.19;;;5.00
79053;BMP280;68451;49.510;6.026;2024-01-30T07:41:36;99052.16;;;3.92
79053;BMP280;68451;49.510;6.026;2024-01-30T07:44:03;99100.47;;;4.25
79053;BMP280;68451;49.510;6.026;2024-01-30T07:46:30;99230.91;;;5.16
79053;BMP280;68451;49.510;6.026;2024-01-30T07:48:58;99248.63;;;5.37
79053;BMP280;68451;49.510;6.026;2024-01-30T07:51:25;99265.47;;;5.49
79053;BMP280;68451;49.510;6.026;2024-01-30T07:53:52;99155.22;;;4.80
79053;BMP280;68451;49.510;6.026;2024-01-30T07:56:18;99244.25;;;5.37
79053;BMP280;68451;49.510;6.026;2024-01-30T07:58:45;99289.34;;;5.61
79053;BMP280;68451;49.510;6.026;2024-01-30T08:01:14;99251.19;;;5.37
79053;BMP280;68451;49.510;6.026;2024-01-30T08:03:41;99250.72;;;5.33
79053;BMP280;68451;49.510;6.026;2024-01-30T08:06:09;99000.41;;;3.76
79053;BMP280;68451;49.510;6.026;2024-01-30T08:08:36;99274.06;;;5.50
79053;BMP280;68451;49.510;6.026;2024-01-30T08:11:04;99144.63;;;4.66
79053;BMP280;68451;49.510;6.026;2024-01-30T08:13:31;99265.78;;;5.38
79053;BMP280;68451;49.510;6.026;2024-01-30T08:15:58;99262.88;;;5.41
79053;BMP280;68451;49.510;6.026;2024-01-30T08:18:25;99282.34;;;5.53
79053;BMP280;68451;49.510;6.026;2024-01-30T08:20:53;99293.38;;;5.63
79053;BMP280;68451;49.510;6.026;2024-01-30T08:23:19;99256.38;;;5.37
79053;BMP280;68451;49.510;6.026;2024-01-30T08:25:46;99276.69;;;5.58
79053;BMP280;68451;49.510;6.026;2024-01-30T08:28:13;99189.13;;;5.03
79053;BMP280;68451;49.510;6.026;2024-01-30T08:30:43;99251.56;;;5.42
79053;BMP280;68451;49.510;6.026;2024-01-30T08:33:10;99298.91;;;5.76
79053;BMP280;68451;49.510;6.026;2024-01-30T08:35:37;99264.03;;;5.55
79053;BMP280;68451;49.510;6.026;2024-01-30T08:38:04;99275.91;;;5.65
79053;BMP280;68451;49.510;6.026;2024-01-30T08:40:31;99282.72;;;5.74
79053;BMP280;68451;49.510;6.026;2024-01-30T08:42:58;99278.84;;;5.78
79053;BMP280;68451;49.510;6.026;2024-01-30T08:45:26;99138.91;;;4.88
79053;BMP280;68451;49.510;6.026;2024-01-30T08:47:52;99152.91;;;5.11
79053;BMP280;68451;49.510;6.026;2024-01-30T08:50:19;99297.91;;;6.11
79053;BMP280;68451;49.510;6.026;2024-01-30T08:52:46;99291.56;;;6.06
79053;BMP280;68451;49.510;6.026;2024-01-30T08:55:15;99169.94;;;5.22
79053;BMP280;68451;49.510;6.026;2024-01-30T08:57:42;99269.00;;;5.90
79053;BMP280;68451;49.510;6.026;2024-01-30T09:00:10;99305.00;;;6.17
79053;BMP280;68451;49.510;6.026;2024-01-30T09:02:37;99270.97;;;6.04
79053;BMP280;68451;49.510;6.026;2024-01-30T09:05:04;99265.16;;;6.18
79053;BMP280;68451;49.510;6.026;2024-01-30T09:07:31;99314.75;;;6.48
79053;BMP280;68451;49.510;6.026;2024-01-30T09:09:58;99349.31;;;6.72
79053;BMP280;68451;49.510;6.026;2024-01-30T09:12:25;99341.50;;;6.81
79053;BMP280;68451;49.510;6.026;2024-01-30T09:14:53;99329.50;;;6.80
79053;BMP280;68451;49.510;6.026;2024-01-30T09:17:20;99301.78;;;6.72
79053;BMP280;68451;49.510;6.026;2024-01-30T09:19:47;99322.69;;;6.87
79053;BMP280;68451;49.510;6.026;2024-01-30T09:22:14;99321.38;;;6.91
79053;BMP280;68451;49.510;6.026;2024-01-30T09:24:41;99271.13;;;6.59
79053;BMP280;68451;49.510;6.026;2024-01-30T09:27:07;99048.38;;;5.20
79053;BMP280;68451;49.510;6.026;2024-01-30T09:29:34;99182.00;;;6.12
79053;BMP280;68451;49.510;6.026;2024-01-30T09:32:04;99331.88;;;7.13
79053;BMP280;68451;49.510;6.026;2024-01-30T09:34:31;99333.63;;;7.29
79053;BMP280;68451;49.510;6.026;2024-01-30T09:36:59;99306.50;;;7.24
79053;BMP280;68451;49.510;6.026;2024-01-30T09:39:26;99357.06;;;7.60
79053;BMP280;68451;49.510;6.026;2024-01-30T09:44:59;99352.81;;;7.59
79053;BMP280;68451;49.510;6.026;2024-01-30T09:47:26;99336.75;;;7.55
79053;BMP280;68451;49.510;6.026;2024-01-30T09:49:55;99222.75;;;6.83
79053;BMP280;68451;49.510;6.026;2024-01-30T09:52:22;99291.72;;;7.24
79053;BMP280;68451;49.510;6.026;2024-01-30T09:54:51;99194.91;;;6.60
79053;BMP280;68451;49.510;6.026;2024-01-30T09:57:18;99014.72;;;5.36
79053;BMP280;68451;49.510;6.026;2024-01-30T09:59:44;99341.50;;;7.52
79053;BMP280;68451;49.510;6.026;2024-01-30T10:02:12;99336.94;;;7.54
79053;BMP280;68451;49.510;6.026;2024-01-30T10:04:39;99361.09;;;7.71
79053;BMP280;68451;49.510;6.026;2024-01-30T10:07:07;99380.47;;;7.91
79053;BMP280;68451;49.510;6.026;2024-01-30T10:09:34;99344.41;;;7.88
79053;BMP280;68451;49.510;6.026;2024-01-30T10:12:02;99269.91;;;7.41
79053;BMP280;68451;49.510;6.026;2024-01-30T10:14:30;99367.88;;;8.10
79053;BMP280;68451;49.510;6.026;2024-01-30T10:17:01;99250.94;;;7.41
79053;BMP280;68451;49.510;6.026;2024-01-30T10:19:38;99347.22;;;8.09
79053;BMP280;68451;49.510;6.026;2024-01-30T10:22:05;99356.44;;;8.20
79053;BMP280;68451;49.510;6.026;2024-01-30T10:24:35;99309.69;;;8.03
79053;BMP280;68451;49.510;6.026;2024-01-30T10:27:02;99366.16;;;8.48
79053;BMP280;68451;49.510;6.026;2024-01-30T10:29:29;99335.19;;;8.39
79053;BMP280;68451;49.510;6.026;2024-01-30T10:32:01;99329.78;;;8.40
79053;BMP280;68451;49.510;6.026;2024-01-30T10:34:28;99361.94;;;8.70
79053;BMP280;68451;49.510;6.026;2024-01-30T10:37:08;99235.34;;;8.09
79053;BMP280;68451;49.510;6.026;2024-01-30T10:39:45;99347.06;;;8.93
79053;BMP280;68451;49.510;6.026;2024-01-30T10:42:17;99234.47;;;8.39
79053;BMP280;68451;49.510;6.026;2024-01-30T10:45:02;99379.19;;;9.38
79053;BMP280;68451;49.510;6.026;2024-01-30T10:47:35;99314.03;;;9.09
79053;BMP280;68451;49.510;6.026;2024-01-30T10:50:05;99252.84;;;8.75
79053;BMP280;68451;49.510;6.026;2024-01-30T10:52:34;99337.75;;;9.43
79053;BMP280;68451;49.510;6.026;2024-01-30T10:55:03;99371.97;;;9.69
79053;BMP280;68451;49.510;6.026;2024-01-30T10:57:34;99225.28;;;8.81
79053;BMP280;68451;49.510;6.026;2024-01-30T11:00:04;99341.78;;;9.60
79053;BMP280;68451;49.510;6.026;2024-01-30T11:02:44;99338.28;;;9.68
79053;BMP280;68451;49.510;6.026;2024-01-30T11:05:12;99291.03;;;9.41
79053;BMP280;68451;49.510;6.026;2024-01-30T11:07:40;99352.91;;;9.83
79053;BMP280;68451;49.510;6.026;2024-01-30T11:10:11;99364.25;;;9.91
79053;BMP280;68451;49.510;6.026;2024-01-30T11:12:42;99378.03;;;10.06
79053;BMP280;68451;49.510;6.026;2024-01-30T11:15:15;99379.03;;;10.19
79053;BMP280;68451;49.510;6.026;2024-01-30T11:20:20;99346.56;;;10.07
79053;BMP280;68451;49.510;6.026;2024-01-30T11:22:48;99361.41;;;10.21
79053;BMP280;68451;49.510;6.026;2024-01-30T11:25:17;99324.22;;;10.05
79053;BMP280;68451;49.510;6.026;2024-01-30T11:27:45;99351.78;;;10.22
79053;BMP280;68451;49.510;6.026;2024-01-30T11:33:05;99118.94;;;8.84
79053;BMP280;68451;49.510;6.026;2024-01-30T11:35:41;99368.03;;;10.45
79053;BMP280;68451;49.510;6.026;2024-01-30T11:38:13;99281.44;;;9.99
79053;BMP280;68451;49.510;6.026;2024-01-30T11:40:40;99356.84;;;10.51
79053;BMP280;68451;49.510;6.026;2024-01-30T11:43:08;99341.94;;;10.45
79053;BMP280;68451;49.510;6.026;2024-01-30T11:45:36;99363.00;;;10.65
79053;BMP280;68451;49.510;6.026;2024-01-30T11:48:03;99342.50;;;10.62
79053;BMP280;68451;49.510;6.026;2024-01-30T11:50:35;99357.06;;;10.77
79053;BMP280;68451;49.510;6.026;2024-01-30T11:53:02;99295.56;;;10.47
79053;BMP280;68451;49.510;6.026;2024-01-30T11:55:30;99320.91;;;10.74
79053;BMP280;68451;49.510;6.026;2024-01-30T11:58:01;99329.63;;;10.88
79053;BMP280;68451;49.510;6.026;2024-01-30T12:00:28;99316.81;;;10.93
79053;BMP280;68451;49.510;6.026;2024-01-30T12:02:57;99240.31;;;10.50
79053;BMP280;68451;49.510;6.026;2024-01-30T12:05:28;99320.31;;;11.07
79053;BMP280;68451;49.510;6.026;2024-01-30T12:07:55;99351.06;;;11.39
79053;BMP280;68451;49.510;6.026;2024-01-30T12:10:26;99293.41;;;11.13
79053;BMP280;68451;49.510;6.026;2024-01-30T12:12:54;99339.59;;;11.40
79053;BMP280;68451;49.510;6.026;2024-01-30T12:15:22;99320.25;;;11.35
79053;BMP280;68451;49.510;6.026;2024-01-30T12:17:49;99351.97;;;11.59
79053;BMP280;68451;49.510;6.026;2024-01-30T12:20:20;99321.53;;;11.45
79053;BMP280;68451;49.510;6.026;2024-01-30T12:22:49;99191.03;;;10.68
79053;BMP280;68451;49.510;6.026;2024-01-30T12:25:18;99323.81;;;11.61
79053;BMP280;68451;49.510;6.026;2024-01-30T12:27:48;99345.44;;;11.77
79053;BMP280;68451;49.510;6.026;2024-01-30T12:30:19;99117.75;;;10.36
79053;BMP280;68451;49.510;6.026;2024-01-30T12:32:50;99352.56;;;11.96
79053;BMP280;68451;49.510;6.026;2024-01-30T12:35:19;99104.47;;;10.37
79053;BMP280;68451;49.510;6.026;2024-01-30T12:37:48;99306.34;;;11.68
79053;BMP280;68451;49.510;6.026;2024-01-30T12:40:15;99326.34;;;11.83
79053;BMP280;68451;49.510;6.026;2024-01-30T12:42:43;99338.06;;;12.00
79053;BMP280;68451;49.510;6.026;2024-01-30T12:45:21;99322.69;;;11.84
79053;BMP280;68451;49.510;6.026;2024-01-30T12:47:49;99351.31;;;11.92
79053;BMP280;68451;49.510;6.026;2024-01-30T12:50:17;99320.50;;;11.81
79053;BMP280;68451;49.510;6.026;2024-01-30T12:52:44;99327.16;;;11.90
79053;BMP280;68451;49.510;6.026;2024-01-30T12:55:15;99349.31;;;11.94
79053;BMP280;68451;49.510;6.026;2024-01-30T12:57:42;99320.28;;;11.76
79053;BMP280;68451;49.510;6.026;2024-01-30T13:00:10;99328.34;;;11.81
79053;BMP280;68451;49.510;6.026;2024-01-30T13:02:37;99319.91;;;11.85
79053;BMP280;68451;49.510;6.026;2024-01-30T13:05:04;99352.56;;;12.02
79053;BMP280;68451;49.510;6.026;2024-01-30T13:07:31;99344.09;;;11.94
79053;BMP280;68451;49.510;6.026;2024-01-30T13:09:58;99340.25;;;11.90
79053;BMP280;68451;49.510;6.026;2024-01-30T13:12:30;99315.03;;;11.76
79053;BMP280;68451;49.510;6.026;2024-01-30T13:14:59;99342.25;;;11.88
79053;BMP280;68451;49.510;6.026;2024-01-30T13:17:32;99343.88;;;11.89
79053;BMP280;68451;49.510;6.026;2024-01-30T13:19:59;99336.19;;;11.81
79053;BMP280;68451;49.510;6.026;2024-01-30T13:22:36;99299.25;;;11.62
79053;BMP280;68451;49.510;6.026;2024-01-30T13:25:06;99313.63;;;11.73
79053;BMP280;68451;49.510;6.026;2024-01-30T13:27:35;99328.75;;;11.78
79053;BMP280;68451;49.510;6.026;2024-01-30T13:30:02;99321.63;;;11.72
79053;BMP280;68451;49.510;6.026;2024-01-30T13:32:30;99352.13;;;11.86
79053;BMP280;68451;49.510;6.026;2024-01-30T13:34:57;99307.09;;;11.62
79053;BMP280;68451;49.510;6.026;2024-01-30T13:37:24;99315.78;;;11.63
79053;BMP280;68451;49.510;6.026;2024-01-30T13:39:51;99278.63;;;11.33
79053;BMP280;68451;49.510;6.026;2024-01-30T13:42:18;99332.50;;;11.68
79053;BMP280;68451;49.510;6.026;2024-01-30T13:44:45;99321.97;;;11.55
79053;BMP280;68451;49.510;6.026;2024-01-30T13:47:12;99292.88;;;11.31
79053;BMP280;68451;49.510;6.026;2024-01-30T13:49:39;99341.94;;;11.63
79053;BMP280;68451;49.510;6.026;2024-01-30T13:52:06;99367.31;;;11.69
79053;BMP280;68451;49.510;6.026;2024-01-30T13:54:33;99331.00;;;11.46
79053;BMP280;68451;49.510;6.026;2024-01-30T13:57:00;99344.31;;;11.51
79053;BMP280;68451;49.510;6.026;2024-01-30T13:59:27;99093.34;;;9.94
79053;BMP280;68451;49.510;6.026;2024-01-30T14:01:54;99248.41;;;10.90
79053;BMP280;68451;49.510;6.026;2024-01-30T14:04:21;99256.72;;;11.00
79053;BMP280;68451;49.510;6.026;2024-01-30T14:06:48;99331.16;;;11.38
79053;BMP280;68451;49.510;6.026;2024-01-30T14:09:26;99315.66;;;11.43
79053;BMP280;68451;49.510;6.026;2024-01-30T14:11:53;99274.09;;;11.14
79053;BMP280;68451;49.510;6.026;2024-01-30T14:14:20;99333.63;;;11.53
79053;BMP280;68451;49.510;6.026;2024-01-30T14:16:47;99316.47;;;11.44
79053;BMP280;68451;49.510;6.026;2024-01-30T14:19:13;99330.81;;;11.54
79053;BMP280;68451;49.510;6.026;2024-01-30T14:21:40;99345.13;;;11.58
79053;BMP280;68451;49.510;6.026;2024-01-30T14:24:09;99176.00;;;10.43
79053;BMP280;68451;49.510;6.026;2024-01-30T14:26:36;99330.38;;;11.44
79053;BMP280;68451;49.510;6.026;2024-01-30T14:29:03;99196.94;;;10.49
79053;BMP280;68451;49.510;6.026;2024-01-30T14:31:30;99335.13;;;11.34